createdAt,value
2017-04-14T00:01:02.038Z,0
2017-04-14T00:02:11.909Z,0
2017-04-14T00:03:22.278Z,0
2017-04-14T00:04:32.392Z,0
2017-04-14T00:05:42.527Z,0
2017-04-14T00:06:52.617Z,0
2017-04-14T00:08:02.685Z,0
2017-04-14T00:09:12.396Z,0
2017-04-14T00:10:22.153Z,0
2017-04-14T00:11:32.287Z,0
2017-04-14T00:12:41.701Z,0
2017-04-14T00:13:51.817Z,0
2017-04-14T00:15:02.260Z,0
2017-04-14T00:16:12.322Z,0
2017-04-14T00:17:22.412Z,0
2017-04-14T00:18:32.543Z,0
2017-04-14T00:19:42.761Z,0
2017-04-14T00:20:52.921Z,0
2017-04-14T00:22:02.710Z,0
2017-04-14T00:23:12.439Z,0
2017-04-14T00:24:21.862Z,0
2017-04-14T00:25:32.033Z,0
2017-04-14T00:26:42.109Z,0
2017-04-14T00:27:52.258Z,0
2017-04-14T00:29:02.050Z,0
2017-04-14T00:30:12.118Z,0
2017-04-14T00:31:22.252Z,0
2017-04-14T00:32:32.300Z,0
2017-04-14T00:33:42.039Z,0
2017-04-14T00:34:51.449Z,0
2017-04-14T00:36:01.623Z,0
2017-04-14T00:37:11.718Z,0
2017-04-14T00:38:21.840Z,0
2017-04-14T00:39:31.933Z,0
2017-04-14T00:40:41.788Z,0
2017-04-14T00:41:51.962Z,0
2017-04-14T00:43:01.737Z,0
2017-04-14T00:44:11.780Z,0
2017-04-14T00:45:21.843Z,0
2017-04-14T00:46:31.256Z,0
2017-04-14T00:47:41.410Z,0
2017-04-14T00:48:51.520Z,0
2017-04-14T00:50:02.031Z,0
2017-04-14T00:51:12.096Z,0
2017-04-14T00:52:21.825Z,0
2017-04-14T00:53:31.598Z,0
2017-04-14T00:54:41.665Z,0
2017-04-14T00:55:51.364Z,0
2017-04-14T00:57:01.424Z,0
2017-04-14T00:58:11.167Z,0
2017-04-14T00:59:21.244Z,0
2017-04-14T01:00:30.969Z,0
2017-04-14T01:01:41.447Z,0
2017-04-14T01:02:51.200Z,0
2017-04-14T01:04:01.266Z,0
2017-04-14T01:05:11.346Z,0
2017-04-14T01:06:21.126Z,0
2017-04-14T01:07:31.515Z,0
2017-04-14T01:08:41.639Z,0
2017-04-14T01:09:51.750Z,0
2017-04-14T01:11:01.831Z,0
2017-04-14T01:12:11.937Z,0
2017-04-14T01:13:22.341Z,0
2017-04-14T01:14:32.440Z,0
2017-04-14T01:15:42.528Z,0
2017-04-14T01:16:52.289Z,0
2017-04-14T01:18:01.693Z,0
2017-04-14T01:19:12.094Z,0
2017-04-14T01:20:21.826Z,0
2017-04-14T01:21:31.896Z,0
2017-04-14T01:22:41.981Z,0
2017-04-14T01:23:51.430Z,0
2017-04-14T01:25:01.470Z,0
2017-04-14T01:26:11.555Z,0
2017-04-14T01:27:21.370Z,0
2017-04-14T01:28:31.434Z,0
2017-04-14T01:29:41.214Z,0
2017-04-14T01:30:51.661Z,0
2017-04-14T01:32:01.469Z,0
2017-04-14T01:33:11.824Z,0
2017-04-14T01:34:21.224Z,0
2017-04-14T01:35:31.332Z,0
2017-04-14T01:36:41.702Z,0
2017-04-14T01:37:51.482Z,0
2017-04-14T01:39:00.892Z,0
2017-04-14T01:40:10.981Z,0
2017-04-14T01:41:21.067Z,0
2017-04-14T01:42:31.139Z,0
2017-04-14T01:43:40.539Z,0
2017-04-14T01:44:50.310Z,0
2017-04-14T01:46:00.424Z,0
2017-04-14T01:47:10.495Z,0
2017-04-14T01:48:20.578Z,0
2017-04-14T01:49:30.328Z,0
2017-04-14T01:50:40.066Z,0
2017-04-14T01:51:50.265Z,0
2017-04-14T01:53:00.357Z,0
2017-04-14T01:54:10.884Z,0
2017-04-14T01:55:20.718Z,0
2017-04-14T01:56:30.827Z,0
2017-04-14T01:57:41.035Z,0
2017-04-14T01:58:50.785Z,0
2017-04-14T02:00:00.864Z,0
2017-04-14T02:01:10.942Z,0
2017-04-14T02:02:21.252Z,0
2017-04-14T02:03:31.462Z,0
2017-04-14T02:04:41.582Z,0
2017-04-14T02:05:52.013Z,0
2017-04-14T02:07:01.089Z,0
2017-04-14T02:08:11.174Z,0
2017-04-14T02:09:21.294Z,0
2017-04-14T02:10:31.358Z,0
2017-04-14T02:11:41.082Z,0
2017-04-14T02:12:50.960Z,0
2017-04-14T02:14:01.043Z,0
2017-04-14T02:15:11.106Z,0
2017-04-14T02:16:20.951Z,0
2017-04-14T02:17:31.326Z,0
2017-04-14T02:18:41.441Z,0
2017-04-14T02:19:51.555Z,0
2017-04-14T02:21:01.338Z,0
2017-04-14T02:22:11.109Z,0
2017-04-14T02:23:21.241Z,0
2017-04-14T02:24:31.310Z,0
2017-04-14T02:25:41.134Z,0
2017-04-14T02:26:51.208Z,0
2017-04-14T02:28:01.429Z,0
2017-04-14T02:29:11.457Z,0
2017-04-14T02:30:21.570Z,0
2017-04-14T02:31:31.334Z,0
2017-04-14T02:32:41.337Z,0
2017-04-14T02:33:51.088Z,0
2017-04-14T02:35:01.107Z,0
2017-04-14T02:36:11.239Z,0
2017-04-14T02:37:20.976Z,0
2017-04-14T02:38:30.710Z,0
2017-04-14T02:39:40.513Z,0
2017-04-14T02:40:50.549Z,0
2017-04-14T02:42:00.285Z,0
2017-04-14T02:43:10.066Z,0
2017-04-14T02:44:19.513Z,0
2017-04-14T02:45:29.291Z,0
2017-04-14T02:46:39.416Z,0
2017-04-14T02:47:49.492Z,0
2017-04-14T02:48:59.661Z,0
2017-04-14T02:50:09.780Z,0
2017-04-14T02:51:19.562Z,0
2017-04-14T02:52:30.022Z,0
2017-04-14T02:53:39.429Z,0
2017-04-14T02:54:49.613Z,0
2017-04-14T02:55:59.379Z,0
2017-04-14T02:57:09.450Z,0
2017-04-14T02:58:19.530Z,0
2017-04-14T02:59:29.641Z,0
2017-04-14T03:00:39.744Z,0
2017-04-14T03:01:49.477Z,0
2017-04-14T03:02:59.226Z,0
2017-04-14T03:04:09.594Z,0
2017-04-14T03:05:19.666Z,0
2017-04-14T03:06:29.502Z,0
2017-04-14T03:07:39.697Z,0
2017-04-14T03:08:49.427Z,0
2017-04-14T03:09:59.458Z,0
2017-04-14T03:11:09.199Z,0
2017-04-14T03:12:19.364Z,0
2017-04-14T03:13:28.869Z,0
2017-04-14T03:14:38.988Z,0
2017-04-14T03:15:48.690Z,0
2017-04-14T03:16:58.437Z,0
2017-04-14T03:18:08.501Z,0
2017-04-14T03:19:18.622Z,0
2017-04-14T03:20:28.071Z,0
2017-04-14T03:21:38.108Z,0
2017-04-14T03:22:47.184Z,0
2017-04-14T03:23:57.314Z,0
2017-04-14T03:25:07.039Z,0
2017-04-14T03:26:17.162Z,0
2017-04-14T03:27:27.532Z,0
2017-04-14T03:28:36.940Z,0
2017-04-14T03:29:47.012Z,0
2017-04-14T03:30:57.243Z,0
2017-04-14T03:32:07.319Z,0
2017-04-14T03:33:17.458Z,0
2017-04-14T03:34:27.655Z,0
2017-04-14T03:35:37.388Z,0
2017-04-14T03:36:47.571Z,0
2017-04-14T03:37:57.624Z,0
2017-04-14T03:39:07.320Z,0
2017-04-14T03:40:17.068Z,0
2017-04-14T03:41:26.460Z,0
2017-04-14T03:42:36.215Z,0
2017-04-14T03:43:45.947Z,0
2017-04-14T03:44:56.341Z,0
2017-04-14T03:46:06.533Z,0
2017-04-14T03:47:16.609Z,4
2017-04-14T03:48:26.337Z,0
2017-04-14T03:49:36.080Z,4
2017-04-14T03:50:46.537Z,4
2017-04-14T03:51:55.996Z,4
2017-04-14T03:53:06.073Z,4
2017-04-14T03:54:16.142Z,4
2017-04-14T03:55:26.277Z,8
2017-04-14T03:56:35.986Z,8
2017-04-14T03:57:45.740Z,12
2017-04-14T03:58:55.831Z,12
2017-04-14T04:00:05.930Z,20
2017-04-14T04:01:16.096Z,20
2017-04-14T04:02:26.524Z,24
2017-04-14T04:03:35.954Z,32
2017-04-14T04:04:46.028Z,36
2017-04-14T04:05:55.770Z,40
2017-04-14T04:07:05.567Z,52
2017-04-14T04:08:15.279Z,56
2017-04-14T04:09:25.357Z,68
2017-04-14T04:10:35.162Z,76
2017-04-14T04:11:45.249Z,92
2017-04-14T04:12:54.976Z,104
2017-04-14T04:14:04.982Z,120
2017-04-14T04:15:15.056Z,132
2017-04-14T04:16:25.119Z,148
2017-04-14T04:17:34.865Z,172
2017-04-14T04:18:44.606Z,192
2017-04-14T04:19:54.754Z,208
2017-04-14T04:21:04.563Z,232
2017-04-14T04:22:14.665Z,256
2017-04-14T04:23:24.212Z,284
2017-04-14T04:24:34.029Z,308
2017-04-14T04:25:44.073Z,336
2017-04-14T04:26:54.187Z,364
2017-04-14T04:28:03.934Z,392
2017-04-14T04:29:14.023Z,424
2017-04-14T04:30:23.436Z,452
2017-04-14T04:31:33.516Z,488
2017-04-14T04:32:43.616Z,520
2017-04-14T04:33:53.025Z,552
2017-04-14T04:35:03.096Z,588
2017-04-14T04:36:12.882Z,620
2017-04-14T04:37:23.360Z,660
2017-04-14T04:38:33.155Z,696
2017-04-14T04:39:42.614Z,728
2017-04-14T04:40:52.681Z,756
2017-04-14T04:42:02.475Z,788
2017-04-14T04:43:12.121Z,816
2017-04-14T04:44:22.200Z,848
2017-04-14T04:45:32.303Z,880
2017-04-14T04:46:41.716Z,912
2017-04-14T04:47:51.897Z,952
2017-04-14T04:49:01.953Z,984
2017-04-14T04:50:12.026Z,1024
2017-04-14T04:51:22.096Z,1060
2017-04-14T04:52:31.584Z,1092
2017-04-14T04:53:41.747Z,1136
2017-04-14T04:54:52.322Z,1196
2017-04-14T04:56:02.501Z,1260
2017-04-14T04:57:12.268Z,1332
2017-04-14T04:58:22.042Z,1416
2017-04-14T04:59:31.874Z,1540
2017-04-14T05:00:42.254Z,1620
2017-04-14T05:01:52.322Z,1676
2017-04-14T05:03:02.072Z,1756
2017-04-14T05:04:11.802Z,1892
2017-04-14T05:05:21.876Z,1916
2017-04-14T05:06:32.292Z,1888
2017-04-14T05:07:42.362Z,1968
2017-04-14T05:08:52.454Z,2052
2017-04-14T05:10:02.407Z,2148
2017-04-14T05:11:12.625Z,2224
2017-04-14T05:12:22.984Z,2328
2017-04-14T05:13:32.722Z,2416
2017-04-14T05:14:42.861Z,2488
2017-04-14T05:15:52.280Z,2548
2017-04-14T05:17:02.449Z,2604
2017-04-14T05:18:12.145Z,2688
2017-04-14T05:19:22.213Z,2836
2017-04-14T05:20:32.298Z,2916
2017-04-14T05:21:42.029Z,3020
2017-04-14T05:22:52.104Z,3116
2017-04-14T05:24:02.578Z,3192
2017-04-14T05:25:12.638Z,3256
2017-04-14T05:26:54.607Z,3316
2017-04-14T05:28:04.696Z,3384
2017-04-14T05:29:14.730Z,3420
2017-04-14T05:30:24.196Z,3512
2017-04-14T05:31:34.417Z,3608
2017-04-14T05:32:44.534Z,3660
2017-04-14T05:33:53.614Z,3756
2017-04-14T05:35:04.026Z,3832
2017-04-14T05:36:14.119Z,3864
2017-04-14T05:37:23.547Z,3768
2017-04-14T05:38:33.751Z,3772
2017-04-14T05:39:43.832Z,3696
2017-04-14T05:40:54.247Z,3620
2017-04-14T05:42:04.008Z,3600
2017-04-14T05:43:13.885Z,3592
2017-04-14T05:44:23.974Z,3640
2017-04-14T05:45:34.088Z,3664
2017-04-14T05:46:44.536Z,3644
2017-04-14T05:47:54.298Z,3592
2017-04-14T05:49:04.358Z,3528
2017-04-14T05:50:14.483Z,3504
2017-04-14T05:51:23.948Z,3548
2017-04-14T05:52:34.108Z,3648
2017-04-14T05:53:44.214Z,3768
2017-04-14T05:54:53.624Z,3792
2017-04-14T05:56:03.717Z,3844
2017-04-14T05:57:13.654Z,3864
2017-04-14T05:58:24.123Z,3908
2017-04-14T05:59:33.817Z,4008
2017-04-14T06:00:43.892Z,4068
2017-04-14T06:01:53.652Z,4148
2017-04-14T06:03:03.393Z,4220
2017-04-14T06:04:13.530Z,4272
2017-04-14T06:05:23.700Z,4364
2017-04-14T06:06:32.771Z,4436
2017-04-14T06:07:42.605Z,4592
2017-04-14T06:08:52.687Z,4888
2017-04-14T06:10:02.819Z,4940
2017-04-14T06:11:12.225Z,5024
2017-04-14T06:12:22.381Z,5172
2017-04-14T06:13:32.538Z,5336
2017-04-14T06:14:42.639Z,5448
2017-04-14T06:15:53.066Z,5536
2017-04-14T06:17:03.247Z,5620
2017-04-14T06:18:13.317Z,5756
2017-04-14T06:19:23.055Z,5728
2017-04-14T06:20:33.152Z,5748
2017-04-14T06:21:43.182Z,5772
2017-04-14T06:22:52.406Z,5820
2017-04-14T06:24:02.560Z,5928
2017-04-14T06:25:12.825Z,6148
2017-04-14T06:26:22.606Z,6528
2017-04-14T06:27:33.083Z,6896
2017-04-14T06:28:43.335Z,7176
2017-04-14T06:29:53.170Z,7392
2017-04-14T06:31:02.944Z,7472
2017-04-14T06:32:12.668Z,7768
2017-04-14T06:33:22.761Z,8012
2017-04-14T06:34:32.511Z,8212
2017-04-14T06:35:42.253Z,8188
2017-04-14T06:36:52.039Z,8248
2017-04-14T06:38:01.818Z,8436
2017-04-14T06:39:12.252Z,8548
2017-04-14T06:40:22.007Z,8664
2017-04-14T06:41:31.749Z,8760
2017-04-14T06:42:41.548Z,8684
2017-04-14T06:43:51.280Z,8568
2017-04-14T06:45:01.652Z,8516
2017-04-14T06:46:11.745Z,8528
2017-04-14T06:47:21.830Z,8532
2017-04-14T06:48:31.895Z,8516
2017-04-14T06:49:41.964Z,8696
2017-04-14T06:50:52.417Z,8740
2017-04-14T06:52:02.514Z,9020
2017-04-14T06:53:12.658Z,9140
2017-04-14T06:54:22.740Z,9148
2017-04-14T06:55:32.826Z,9216
2017-04-14T06:56:43.209Z,9220
2017-04-14T06:57:52.993Z,9228
2017-04-14T06:59:02.736Z,9228
2017-04-14T07:00:12.817Z,9248
2017-04-14T07:01:23.017Z,9532
2017-04-14T07:02:33.483Z,9824
2017-04-14T07:03:43.324Z,10084
2017-04-14T07:04:53.111Z,10096
2017-04-14T07:06:03.444Z,10000
2017-04-14T07:07:13.382Z,9876
2017-04-14T07:08:23.464Z,9824
2017-04-14T07:09:33.546Z,9848
2017-04-14T07:10:43.613Z,10016
2017-04-14T07:11:53.350Z,10248
2017-04-14T07:13:03.455Z,10500
2017-04-14T07:14:13.542Z,10612
2017-04-14T07:15:23.298Z,10888
2017-04-14T07:16:33.569Z,11068
2017-04-14T07:17:43.775Z,11172
2017-04-14T07:18:53.186Z,11436
2017-04-14T07:20:03.586Z,11352
2017-04-14T07:21:13.422Z,11584
2017-04-14T07:22:23.161Z,12056
2017-04-14T07:23:32.920Z,11884
2017-04-14T07:24:43.017Z,12032
2017-04-14T07:25:53.075Z,12068
2017-04-14T07:27:03.167Z,12348
2017-04-14T07:28:13.313Z,12440
2017-04-14T07:29:23.585Z,12624
2017-04-14T07:30:33.349Z,12728
2017-04-14T07:31:43.389Z,12608
2017-04-14T07:32:53.482Z,12400
2017-04-14T07:34:03.559Z,12336
2017-04-14T07:35:13.705Z,12368
2017-04-14T07:36:23.842Z,13136
2017-04-14T07:37:34.233Z,13508
2017-04-14T07:38:44.531Z,13200
2017-04-14T07:39:54.865Z,13460
2017-04-14T07:41:04.944Z,13156
2017-04-14T07:42:14.688Z,13384
2017-04-14T07:43:24.723Z,13380
2017-04-14T07:44:34.799Z,13064
2017-04-14T07:45:44.555Z,13212
2017-04-14T07:46:54.633Z,13048
2017-04-14T07:48:04.850Z,12836
2017-04-14T07:49:15.280Z,13156
2017-04-14T07:50:25.355Z,13752
2017-04-14T07:51:35.553Z,14608
2017-04-14T07:52:45.028Z,13888
2017-04-14T07:53:55.146Z,14192
2017-04-14T07:55:04.616Z,14600
2017-04-14T07:56:14.371Z,14452
2017-04-14T07:57:25.181Z,14124
2017-04-14T07:58:35.907Z,14072
2017-04-14T07:59:46.605Z,13840
2017-04-14T08:00:57.410Z,13752
2017-04-14T08:02:07.921Z,13632
2017-04-14T08:03:18.329Z,14048
2017-04-14T08:04:28.728Z,14456
2017-04-14T08:05:39.503Z,15220
2017-04-14T08:06:50.613Z,15872
2017-04-14T08:08:01.394Z,16480
2017-04-14T08:09:11.801Z,14976
2017-04-14T08:10:22.181Z,14592
2017-04-14T08:11:33.506Z,16000
2017-04-14T08:12:44.332Z,14684
2017-04-14T08:13:55.052Z,14196
2017-04-14T08:15:05.808Z,13464
2017-04-14T08:16:16.528Z,14124
2017-04-14T08:17:26.950Z,14344
2017-04-14T08:18:38.036Z,14928
2017-04-14T08:19:49.725Z,14108
2017-04-14T08:21:00.179Z,16608
2017-04-14T08:22:10.929Z,17824
2017-04-14T08:23:21.303Z,17248
2017-04-14T08:24:32.423Z,17568
2017-04-14T08:25:43.164Z,17472
2017-04-14T08:26:53.554Z,17344
2017-04-14T08:28:04.308Z,19008
2017-04-14T08:29:15.068Z,19744
2017-04-14T08:30:26.194Z,20160
2017-04-14T08:31:36.618Z,19808
2017-04-14T08:32:47.612Z,20128
2017-04-14T08:33:58.388Z,22240
2017-04-14T08:35:09.199Z,23072
2017-04-14T08:36:19.865Z,20032
2017-04-14T08:37:30.576Z,22496
2017-04-14T08:38:42.240Z,25856
2017-04-14T08:39:52.730Z,23520
2017-04-14T08:41:03.496Z,26560
2017-04-14T08:42:14.536Z,31968
2017-04-14T08:43:25.310Z,36128
2017-04-14T08:44:35.704Z,41280
2017-04-14T08:45:45.739Z,65536
2017-04-14T08:46:56.592Z,62240
2017-04-14T08:48:07.606Z,42336
2017-04-14T08:49:18.191Z,62720
2017-04-14T08:50:28.593Z,61984
2017-04-14T08:51:39.444Z,59264
2017-04-14T08:52:49.878Z,56000
2017-04-14T08:54:00.950Z,62176
2017-04-14T08:55:11.654Z,59296
2017-04-14T08:56:22.075Z,66400
2017-04-14T08:57:32.920Z,69760
2017-04-14T08:58:43.692Z,68064
2017-04-14T08:59:55.568Z,71360
2017-04-14T09:01:07.393Z,79584
2017-04-14T09:02:18.117Z,77088
2017-04-14T09:03:28.828Z,89120
2017-04-14T09:04:39.541Z,58112
2017-04-14T09:05:50.645Z,59712
2017-04-14T09:07:01.054Z,82720
2017-04-14T09:08:11.522Z,92064
2017-04-14T09:09:21.907Z,77536
2017-04-14T09:10:33.330Z,75520
2017-04-14T09:11:45.300Z,76960
2017-04-14T09:12:56.093Z,80416
2017-04-14T09:14:06.817Z,69056
2017-04-14T09:15:17.743Z,72928
2017-04-14T09:16:28.510Z,73216
2017-04-14T09:17:39.649Z,60992
2017-04-14T09:18:50.095Z,53824
2017-04-14T09:20:00.869Z,26272
2017-04-14T09:21:11.636Z,67328
2017-04-14T09:22:22.446Z,19968
2017-04-14T09:23:33.134Z,18848
2017-04-14T09:24:43.594Z,61568
2017-04-14T09:25:54.020Z,73280
2017-04-14T09:27:04.831Z,33056
2017-04-14T09:28:15.222Z,81280
2017-04-14T09:29:26.257Z,64608
2017-04-14T09:30:36.626Z,126784
2017-04-14T09:31:48.433Z,97760
2017-04-14T09:32:59.145Z,82272
2017-04-14T09:34:09.876Z,101664
2017-04-14T09:35:21.033Z,90592
2017-04-14T09:36:32.801Z,73536
2017-04-14T09:37:43.279Z,98208
2017-04-14T09:38:54.065Z,86528
2017-04-14T09:40:04.383Z,63424
2017-04-14T09:41:15.411Z,49792
2017-04-14T09:42:26.318Z,47648
2017-04-14T09:43:37.092Z,57600
2017-04-14T09:44:47.875Z,58368
2017-04-14T09:45:58.613Z,95872
2017-04-14T09:47:09.652Z,87072
2017-04-14T09:48:21.351Z,59424
2017-04-14T09:49:31.739Z,76032
2017-04-14T09:50:42.507Z,90912
2017-04-14T09:51:53.329Z,91072
2017-04-14T09:53:04.357Z,106400
2017-04-14T09:54:15.215Z,101056
2017-04-14T09:55:26.105Z,108768
2017-04-14T09:56:36.534Z,99584
2017-04-14T09:57:47.262Z,68512
2017-04-14T09:58:57.966Z,87168
2017-04-14T10:00:08.685Z,125184
2017-04-14T10:01:19.522Z,108928
2017-04-14T10:02:29.994Z,120608
2017-04-14T10:03:41.026Z,110656
2017-04-14T10:04:52.036Z,24384
2017-04-14T10:06:03.377Z,60608
2017-04-14T10:07:13.774Z,88320
2017-04-14T10:08:24.181Z,116128
2017-04-14T10:09:35.016Z,107904
2017-04-14T10:10:46.105Z,103072
2017-04-14T10:11:57.326Z,108000
2017-04-14T10:13:09.004Z,109472
2017-04-14T10:14:19.731Z,82016
2017-04-14T10:15:30.188Z,78880
2017-04-14T10:16:40.948Z,126144
2017-04-14T10:17:51.385Z,117504
2017-04-14T10:19:02.369Z,75776
2017-04-14T10:20:13.271Z,86368
2017-04-14T10:21:23.438Z,79456
2017-04-14T10:22:34.577Z,94080
2017-04-14T10:23:45.331Z,128608
2017-04-14T10:24:56.066Z,139168
2017-04-14T10:26:07.059Z,98144
2017-04-14T10:27:17.958Z,86528
2017-04-14T10:28:29.019Z,111904
2017-04-14T10:30:10.560Z,103328
2017-04-14T10:31:21.295Z,93216
2017-04-14T10:32:32.148Z,110016
2017-04-14T10:33:44.255Z,93088
2017-04-14T10:34:55.124Z,116480
2017-04-14T10:36:05.530Z,131200
2017-04-14T10:37:15.945Z,108608
2017-04-14T10:38:26.862Z,114816
2017-04-14T10:39:38.863Z,130592
2017-04-14T10:40:49.588Z,83744
2017-04-14T10:42:00.373Z,80128
2017-04-14T10:43:11.117Z,32576
2017-04-14T10:44:22.034Z,31744
2017-04-14T10:45:33.216Z,29536
2017-04-14T10:46:44.034Z,36064
2017-04-14T10:47:54.428Z,126528
2017-04-14T10:49:04.810Z,104512
2017-04-14T10:50:15.584Z,84416
2017-04-14T10:51:26.656Z,116704
2017-04-14T10:52:37.435Z,154816
2017-04-14T10:53:48.164Z,140928
2017-04-14T10:54:58.938Z,36736
2017-04-14T10:56:09.711Z,36224
2017-04-14T10:57:20.796Z,106624
2017-04-14T10:58:31.248Z,48352
2017-04-14T10:59:42.022Z,116480
2017-04-14T11:00:52.769Z,90368
2017-04-14T11:02:03.551Z,96448
2017-04-14T11:03:14.692Z,105728
2017-04-14T11:04:25.108Z,114944
2017-04-14T11:05:35.191Z,98688
2017-04-14T11:06:46.029Z,85696
2017-04-14T11:07:56.870Z,96352
2017-04-14T11:09:07.929Z,111392
2017-04-14T11:10:19.350Z,21088
2017-04-14T11:11:29.811Z,21408
2017-04-14T11:12:40.278Z,32128
2017-04-14T11:13:51.171Z,35488
2017-04-14T11:15:02.267Z,30304
2017-04-14T11:16:13.018Z,114496
2017-04-14T11:17:23.428Z,96288
2017-04-14T11:18:35.217Z,95264
2017-04-14T11:19:45.952Z,122720
2017-04-14T11:20:56.982Z,129792
2017-04-14T11:22:08.681Z,88704
2017-04-14T11:23:19.562Z,76480
2017-04-14T11:24:30.384Z,98848
2017-04-14T11:25:40.921Z,122432
2017-04-14T11:26:51.631Z,84416
2017-04-14T11:28:02.122Z,57760
2017-04-14T11:29:12.958Z,108480
2017-04-14T11:30:23.938Z,27168
2017-04-14T11:31:34.359Z,27872
2017-04-14T11:32:45.100Z,27360
2017-04-14T11:33:55.598Z,112608
2017-04-14T11:35:06.160Z,117920
2017-04-14T11:36:16.882Z,77120
2017-04-14T11:37:27.562Z,72352
2017-04-14T11:38:38.757Z,100192
2017-04-14T11:39:50.523Z,119232
2017-04-14T11:41:02.325Z,125536
2017-04-14T11:42:13.220Z,121632
2017-04-14T11:43:23.664Z,107424
2017-04-14T11:44:34.811Z,93504
2017-04-14T11:45:44.918Z,95136
2017-04-14T11:46:55.149Z,95200
2017-04-14T11:48:05.876Z,101600
2017-04-14T11:49:17.639Z,103392
2017-04-14T11:50:28.659Z,105632
2017-04-14T11:51:39.417Z,105536
2017-04-14T11:52:50.266Z,102048
2017-04-14T11:54:01.152Z,111168
2017-04-14T11:55:11.910Z,109184
2017-04-14T11:56:23.032Z,116896
2017-04-14T11:57:33.493Z,127808
2017-04-14T11:58:44.523Z,112288
2017-04-14T11:59:54.957Z,105472
2017-04-14T12:01:05.708Z,114112
2017-04-14T12:02:16.909Z,105952
2017-04-14T12:03:27.730Z,77824
2017-04-14T12:04:38.492Z,108672
2017-04-14T12:05:48.939Z,132416
2017-04-14T12:06:59.334Z,104160
2017-04-14T12:08:10.384Z,89504
2017-04-14T12:09:20.872Z,103136
2017-04-14T12:10:31.632Z,130528
2017-04-14T12:11:42.379Z,129984
2017-04-14T12:12:52.841Z,108064
2017-04-14T12:14:03.531Z,103552
2017-04-14T12:15:15.233Z,121888
2017-04-14T12:16:25.683Z,112064
2017-04-14T12:17:36.564Z,87904
2017-04-14T12:18:47.347Z,104704
2017-04-14T12:19:58.052Z,114528
2017-04-14T12:21:09.753Z,99872
2017-04-14T12:22:20.174Z,128736
2017-04-14T12:23:30.899Z,155936
2017-04-14T12:24:41.384Z,103712
2017-04-14T12:25:52.108Z,68064
2017-04-14T12:27:02.200Z,109632
2017-04-14T12:28:13.013Z,135104
2017-04-14T12:29:23.566Z,106912
2017-04-14T12:30:35.268Z,100128
2017-04-14T12:31:46.149Z,127904
2017-04-14T12:32:57.016Z,123136
2017-04-14T12:34:07.467Z,74656
2017-04-14T12:35:17.884Z,71072
2017-04-14T12:36:28.677Z,124128
2017-04-14T12:37:39.876Z,148704
2017-04-14T12:38:50.341Z,121696
2017-04-14T12:40:00.760Z,113984
2017-04-14T12:41:11.517Z,80672
2017-04-14T12:42:22.314Z,65504
2017-04-14T12:43:33.444Z,91744
2017-04-14T12:44:44.212Z,109056
2017-04-14T12:45:55.021Z,101952
2017-04-14T12:47:05.799Z,98112
2017-04-14T12:48:16.647Z,11388
2017-04-14T12:49:28.304Z,23104
2017-04-14T12:50:39.102Z,26304
2017-04-14T12:51:49.633Z,27296
2017-04-14T12:53:00.091Z,91680
2017-04-14T12:54:10.276Z,29760
2017-04-14T12:55:21.026Z,96608
2017-04-14T12:56:31.791Z,99264
2017-04-14T12:57:42.519Z,97088
2017-04-14T12:58:53.281Z,99616
2017-04-14T13:00:04.123Z,48800
2017-04-14T13:01:15.307Z,44832
2017-04-14T13:02:25.466Z,101408
2017-04-14T13:03:35.995Z,106240
2017-04-14T13:04:46.793Z,27616
2017-04-14T13:05:57.526Z,46656
2017-04-14T13:07:08.680Z,26848
2017-04-14T13:08:19.106Z,24608
2017-04-14T13:09:29.835Z,22304
2017-04-14T13:10:40.568Z,20480
2017-04-14T13:11:51.312Z,18560
2017-04-14T13:13:02.058Z,16192
2017-04-14T13:14:12.124Z,14396
2017-04-14T13:15:22.580Z,13404
2017-04-14T13:16:33.371Z,12552
2017-04-14T13:17:44.126Z,12284
2017-04-14T13:18:55.789Z,12044
2017-04-14T13:20:06.652Z,11956
2017-04-14T13:21:18.367Z,11740
2017-04-14T13:22:29.171Z,11728
2017-04-14T13:23:39.983Z,12196
2017-04-14T13:24:51.102Z,12700
2017-04-14T13:26:01.517Z,13112
2017-04-14T13:27:12.254Z,13528
2017-04-14T13:28:23.036Z,15088
2017-04-14T13:29:33.901Z,17312
2017-04-14T13:30:44.212Z,19136
2017-04-14T13:31:54.881Z,20576
2017-04-14T13:33:05.657Z,20448
2017-04-14T13:34:16.503Z,19520
2017-04-14T13:35:26.944Z,20032
2017-04-14T13:36:38.131Z,20576
2017-04-14T13:37:48.898Z,20192
2017-04-14T13:39:00.596Z,18816
2017-04-14T13:40:11.195Z,17568
2017-04-14T13:41:21.955Z,22656
2017-04-14T13:42:32.978Z,21600
2017-04-14T13:43:43.695Z,23264
2017-04-14T13:44:54.475Z,23776
2017-04-14T13:46:05.366Z,24736
2017-04-14T13:47:15.803Z,28544
2017-04-14T13:48:26.500Z,31872
2017-04-14T13:49:36.912Z,36704
2017-04-14T13:50:47.321Z,31776
2017-04-14T13:51:58.109Z,31392
2017-04-14T13:53:08.843Z,29088
2017-04-14T13:54:20.478Z,31488
2017-04-14T13:55:31.246Z,31840
2017-04-14T13:56:41.956Z,29760
2017-04-14T13:57:52.412Z,28384
2017-04-14T13:59:03.251Z,26144
2017-04-14T14:00:13.627Z,24640
2017-04-14T14:01:24.401Z,23200
2017-04-14T14:02:35.162Z,22240
2017-04-14T14:03:45.613Z,20768
2017-04-14T14:04:56.403Z,18848
2017-04-14T14:06:07.190Z,17376
2017-04-14T14:07:18.029Z,16192
2017-04-14T14:08:29.429Z,15300
2017-04-14T14:09:39.915Z,15240
2017-04-14T14:10:50.640Z,15480
2017-04-14T14:12:01.293Z,15492
2017-04-14T14:13:12.137Z,16064
2017-04-14T14:14:22.575Z,16640
2017-04-14T14:15:33.364Z,16992
2017-04-14T14:16:44.288Z,17152
2017-04-14T14:17:55.489Z,17280
2017-04-14T14:19:06.228Z,17632
2017-04-14T14:20:15.947Z,17920
2017-04-14T14:21:26.845Z,17952
2017-04-14T14:22:37.676Z,17792
2017-04-14T14:23:48.437Z,17600
2017-04-14T14:24:58.863Z,16960
2017-04-14T14:26:09.717Z,15968
2017-04-14T14:27:20.122Z,15024
2017-04-14T14:28:30.225Z,14048
2017-04-14T14:29:41.361Z,12984
2017-04-14T14:30:52.076Z,12120
2017-04-14T14:32:02.463Z,11688
2017-04-14T14:33:13.843Z,11408
2017-04-14T14:34:24.752Z,10968
2017-04-14T14:35:35.836Z,10692
2017-04-14T14:36:46.689Z,11076
2017-04-14T14:37:57.464Z,11908
2017-04-14T14:39:07.902Z,12504
2017-04-14T14:40:18.283Z,12792
2017-04-14T14:41:28.998Z,13028
2017-04-14T14:42:39.729Z,12964
2017-04-14T14:43:50.112Z,12504
2017-04-14T14:45:01.903Z,11908
2017-04-14T14:46:12.685Z,11252
2017-04-14T14:47:23.423Z,10368
2017-04-14T14:48:34.173Z,9924
2017-04-14T14:49:44.880Z,9492
2017-04-14T14:50:55.601Z,8784
2017-04-14T14:52:06.401Z,7892
2017-04-14T14:53:17.247Z,7128
2017-04-14T14:54:28.054Z,6632
2017-04-14T14:55:38.430Z,6116
2017-04-14T14:56:49.156Z,5568
2017-04-14T14:57:59.531Z,5180
2017-04-14T14:59:10.636Z,4964
2017-04-14T15:00:21.381Z,4836
2017-04-14T15:01:32.154Z,4704
2017-04-14T15:02:43.594Z,4508
2017-04-14T15:03:54.309Z,4348
2017-04-14T15:05:04.999Z,4224
2017-04-14T15:06:14.373Z,4408
2017-04-14T15:07:25.142Z,4628
2017-04-14T15:08:35.867Z,4888
2017-04-14T15:09:46.240Z,5032
2017-04-14T15:10:57.294Z,5272
2017-04-14T15:12:07.731Z,5536
2017-04-14T15:13:18.315Z,5652
2017-04-14T15:14:29.097Z,5644
2017-04-14T15:15:39.484Z,5396
2017-04-14T15:16:50.514Z,4704
2017-04-14T15:18:01.348Z,3988
2017-04-14T15:19:11.773Z,3432
2017-04-14T15:20:22.249Z,3140
2017-04-14T15:21:33.056Z,3100
2017-04-14T15:22:44.078Z,3172
2017-04-14T15:23:55.770Z,3340
2017-04-14T15:25:06.550Z,3428
2017-04-14T15:26:17.877Z,3472
2017-04-14T15:27:28.644Z,3416
2017-04-14T15:28:39.342Z,3356
2017-04-14T15:29:49.809Z,3272
2017-04-14T15:31:00.539Z,3200
2017-04-14T15:32:11.511Z,3292
2017-04-14T15:33:22.204Z,3632
2017-04-14T15:34:32.969Z,4164
2017-04-14T15:35:43.786Z,4612
2017-04-14T15:36:54.524Z,4776
2017-04-14T15:38:04.288Z,4784
2017-04-14T15:39:14.806Z,4768
2017-04-14T15:40:25.827Z,4804
2017-04-14T15:41:36.587Z,4932
2017-04-14T15:42:46.983Z,5184
2017-04-14T15:43:57.725Z,5392
2017-04-14T15:45:09.388Z,5356